AirNav   Air Wisconsin pilot careers
 
 1009 users online  

KTFP McCampbell-Porter Airport
Ingleside, Texas, USA

GOING TO INGLESIDE?


FAA INFORMATION EFFECTIVE 16 AUGUST 2018

Location

FAA Identifier: TFP
Lat/Long: 27-54-46.9000N / 097-12-41.4000W
27-54.781667N / 097-12.690000W
27.9130278 / -97.2115000
(estimated)
Elevation: 17.6 ft. / 5 m (estimated)
Variation: 07E (1985)
From city: 2 miles N of INGLESIDE, TX
Time zone: UTC -5 (UTC -6 during Standard Time)
Zip code: 78336

Airport Operations

Airport use: Open to the public
Activation date: 03/1991
Control tower: no
ARTCC: HOUSTON CENTER
FSS: SAN ANGELO FLIGHT SERVICE STATION
NOTAMs facility: SJT (NOTAM-D service available)
Attendance: 0800-1800
Wind indicator: lighted
Segmented circle: yes
Lights: MIRL RY 13/31 PRESET LOW INTST; TO INCR INTST ACTVT - CTAF (122.7).
Beacon: white-green (lighted land airport)
Operates sunset to sunrise.

Airport Communications

CTAF/UNICOM: 122.7
WX AWOS-3: 118.775 (361-758-8961)
CORPUS APPROACH: 120.9
CORPUS DEPARTURE: 120.9
WX AWOS-3 at RAS (9 nm SE): 118.425 (361-749-0537)
WX ASOS at RKP (14 nm NE): 119.275 (361-729-2372)
WX ASOS at CRP (18 nm SW): PHONE 361-289-0191
WX AWOS-1 at T69 (19 nm NW): 118.25 (361-364-1844)

Nearby radio navigation aids

VOR radial/distance  VOR name  Freq  Var
CRPr078/12.4CORPUS CHRISTI VORTAC115.5009E
NGPr012/14.3TRUAX VORTAC114.0006E

 
NDB name  Hdg/Dist  Freq  Var  ID
MELLON RANCH175/22.037506EMNO -- -. ---

Airport Services

Fuel available: 100LL JET-A
FUEL SELF-SERVICE.
Parking: hangars and tiedowns
Airframe service: MAJOR
Powerplant service: MAJOR

Runway Information

Runway 13/31

Dimensions: 5000 x 75 ft. / 1524 x 23 m
Surface: asphalt, in good condition
Runway edge lights: medium intensity
RUNWAY 13  RUNWAY 31
Latitude: 27-55.096700N27-54.466995N
Longitude: 097-12.989438W097-12.389185W
Elevation: 15.0 ft.13.2 ft.
Traffic pattern: leftleft
Runway heading: 133 magnetic, 140 true313 magnetic, 320 true
Markings: nonprecision, in good conditionnonprecision, in good condition
Visual slope indicator: 2-light PAPI on left (3.00 degrees glide path)2-light PAPI on left (3.00 degrees glide path)
Touchdown point: yes, no lightsyes, no lights

Airport Ownership and Management from official FAA records

Ownership: Publicly-owned
Owner: SAN PATRICIO COUNTY
400 WEST SINTON ST.
SINTON, TX 78387
Phone 361-758-2000
Manager: PAUL LEHNERT
3141 FM 3512
ARANSAS PASS, TX 78336
Phone (361) 758-5018
ALT PH# 361-222-8417.

Airport Operational Statistics

Aircraft based on the field: 19
Single engine airplanes: 18
Multi engine airplanes: 1
    
Aircraft operations: avg 85/day *
48% local general aviation
32% transient general aviation
19% military
* for 12-month period ending 09 March 2017

Additional Remarks

FOR CD CTC CRP APCH AT 361-299-4230.

Instrument Procedures

NOTE: All procedures below are presented as PDF files. If you need a reader for these files, you should download the free Adobe Reader.

NOT FOR NAVIGATION. Please procure official charts for flight.
FAA instrument procedures published for use from 16 August 2018 at 0901Z to 13 September 2018 at 0900Z.

 
IAPs - Instrument Approach Procedures
RNAV (GPS) RWY 13   download (210KB)
RNAV (GPS) RWY 31   download (212KB)
NOTE: Special Alternate Minimums apply   download (29KB)

Other nearby airports with instrument procedures:

KRAS - Mustang Beach Airport (9 nm SE)
KRKP - Aransas County Airport (14 nm NE)
KNGP - Corpus Christi Naval Air Station/Truax Field (14 nm S)
KCRP - Corpus Christi International Airport (18 nm SW)
T69 - Alfred C 'Bubba' Thomas Airport (19 nm NW)
 
Loc | Ops | Rwys | IFR | FBO | Links
Com | Nav | Svcs | Stats | Notes


 
Area around KTFP (McCampbell-Porter Airport)
 
Road maps at: MapQuest Bing Google
 
Aerial photo
WARNING: Photo may not be current or correct
Aerial photo of KTFP (McCampbell-Porter Airport)
Do you have a better or more recent aerial photo of McCampbell-Porter Airport that you would like to share? If so, please send us your photo.

 
Sectional chart

 
Airport diagram
CAUTION: Diagram may not be current
Diagram of KTFP (McCampbell-Porter Airport)
 
Airport distance calculator
Flying to McCampbell-Porter Airport? Find the distance to fly.

From to KTFP

Sunrise and sunset
Times for 18-Aug-2018
 Local
(UTC-5)
 Zulu
(UTC)
Morning civil twilight06:3711:37
Sunrise07:0212:02
Sunset20:0401:04
Evening civil twilight20:2801:28

Current date and time
Zulu (UTC)  18-Aug-2018 20:08:48
Local (UTC-5)  18-Aug-2018 15:08:48
 
METAR
KTFP 181955Z AUTO 17012G16KT 10SM CLR 34/22 A2998 RMK AO2 T03380224 PNO
KRAS 
9nm SE 
181955Z AUTO 14011KT 10SM CLR 31/25 A3000 RMK AO2 T03080254
KRKP 
13nm NE 
181953Z AUTO 14010KT 9SM CLR 32/24 A2998 RMK AO2 SLP155 T03220239
KNGP 
14nm S 
181956Z AUTO 14012KT 10SM CLR 33/25 A2998 RMK AO2 SLP151 T03330250
KCRP 
18nm SW 
181951Z 13012G18KT 10SM SCT043 SCT045 35/21 A2997 RMK AO2 SLP146 T03500211
TAF
KNGP 
14nm S 
1815/1915 16013KT 9999 FEW015 QNH2997INS TEMPO 1817/1822 14015G20KT 9999 FEW250 SCT300 BECMG 1902/1904 16013KT 9999 FEW250 QNH2995INS BECMG 1911/1913 18010KT 9999 FEW250 QNH2998INS AUTOMATED SENSOR METWATCH 1815 TIL 1917 T37/1820Z T25/1812Z FN00185
KCRP 
18nm SW 
181735Z 1818/1918 15012G18KT P6SM SCT025 FM182000 13018G25KT P6SM FEW045 FM190200 15012KT P6SM SCT250 FM190800 17008KT P6SM SCT020 FM191600 17015G22KT P6SM FEW030
NOTAMs
Click for the latest NOTAMs
NOTAMs are issued by the DoD/FAA and will open in a separate window not controlled by AirNav.

 

 
 

FBO, Fuel Providers, and Aircraft Ground Support

  
 Business Name 
 
 Contact 
 
 Services / Description 
 
Fuel Prices
 
Comments
  
Corpus Christi Jet Center UNICOM 122.70
361-758-2000
[web site]
[email]
We will match KCRP contract fuel rates!
More info and photos of Corpus Christi Jet Center
Avfuel
100LL Jet A
FS $4.80 $4.50 
SS $4.15 $4.25 
 Updated 14-Aug-2018
 
   6 read write
FS=Full service
SS=Self service
Update Fuel Prices
 

Would you like to see your business listed on this page?

 If your business provides an interesting product or service to pilots, flight crews, aircraft, or users of the McCampbell-Porter Airport, you should consider listing it here.  To start the listing process, click on the button below
 
Add a business
 

Other Pages about McCampbell-Porter Airport

Update a link
 
Copyright © AirNav, LLC. All rights reserved. Privacy Policy  Contact